Time;durP1;ratioP1;P1;durP2;ratioP2;P2;SDS_P1;SDS_P2;PMS_P1;PMS_P2;Temp;Humidity;BMP_temperature;BMP_pressure;BME280_temperature;BME280_humidity;BME280_pressure;Samples;Min_cycle;Max_cycle;Signal;HPM_P1;HPM_P2
2021/07/16 00:01:06;;;;;;;508.80;414.98;;;;;;;;;;4943091;29;20058;-75
2021/07/16 00:03:32;;;;;;;506.17;411.23;;;;;;;;;;4926549;29;20091;-76
2021/07/16 00:05:58;;;;;;;509.25;414.73;;;;;;;;;;4925623;29;20616;-75
2021/07/16 00:08:24;;;;;;;501.38;397.33;;;;;;;;;;4942612;28;20047;-74
2021/07/16 00:10:50;;;;;;;506.15;410.17;;;;;;;;;;4925465;29;20115;-76
2021/07/16 00:13:16;;;;;;;506.48;406.08;;;;;;;;;;4932438;29;20436;-76
2021/07/16 00:15:42;;;;;;;509.60;417.15;;;;;;;;;;4927349;29;20043;-76
2021/07/16 00:18:08;;;;;;;510.00;411.38;;;;;;;;;;4946645;29;20520;-75
2021/07/16 00:20:34;;;;;;;510.40;406.95;;;;;;;;;;4943790;29;20020;-76
2021/07/16 00:23:00;;;;;;;506.98;408.67;;;;;;;;;;4929568;29;20030;-76
2021/07/16 00:25:26;;;;;;;507.80;407.63;;;;;;;;;;4930356;29;20035;-75
2021/07/16 00:27:52;;;;;;;502.83;395.38;;;;;;;;;;4947030;29;20097;-75
2021/07/16 00:30:19;;;;;;;503.48;402.45;;;;;;;;;;4943795;29;20027;-75
2021/07/16 00:32:45;;;;;;;507.88;411.10;;;;;;;;;;4929478;29;20309;-74
2021/07/16 00:35:11;;;;;;;513.33;398.40;;;;;;;;;;4929192;29;20046;-75
2021/07/16 00:37:37;;;;;;;506.42;406.80;;;;;;;;;;4929816;29;20086;-75
2021/07/16 00:40:05;;;;;;;505.30;404.80;;;;;;;;;;4929379;29;20039;-73
2021/07/16 00:42:31;;;;;;;506.67;403.60;;;;;;;;;;4934827;29;20035;-75
2021/07/16 00:44:57;;;;;;;507.85;408.08;;;;;;;;;;4928319;29;20106;-75
2021/07/16 00:47:23;;;;;;;508.67;397.90;;;;;;;;;;4925336;29;20325;-73
2021/07/16 00:49:49;;;;;;;509.55;410.83;;;;;;;;;;4928523;29;20039;-74
2021/07/16 00:52:15;;;;;;;506.30;403.60;;;;;;;;;;4945494;28;20024;-74
2021/07/16 00:54:41;;;;;;;503.80;396.73;;;;;;;;;;4946279;29;20360;-75
2021/07/16 00:57:07;;;;;;;507.25;405.05;;;;;;;;;;4940697;29;20027;-75
2021/07/16 00:59:34;;;;;;;503.10;396.48;;;;;;;;;;4926332;29;20027;-75
2021/07/16 01:02:01;;;;;;;506.38;403.95;;;;;;;;;;4929309;28;20097;-75
2021/07/16 01:04:27;;;;;;;509.77;408.45;;;;;;;;;;4938442;28;20043;-75
2021/07/16 01:06:53;;;;;;;506.67;398.80;;;;;;;;;;4926453;29;20082;-75
2021/07/16 01:09:19;;;;;;;507.42;406.67;;;;;;;;;;4944050;28;20032;-74
2021/07/16 01:11:45;;;;;;;1139.18;624.00;;;;;;;;;;4926538;29;22247;-75
2021/07/16 01:14:12;;;;;;;508.95;402.10;;;;;;;;;;4943613;29;20756;-75
2021/07/16 01:16:38;;;;;;;504.55;404.05;;;;;;;;;;4941825;28;20034;-75
2021/07/16 01:19:04;;;;;;;509.17;404.75;;;;;;;;;;4929362;29;20058;-75
2021/07/16 01:21:32;;;;;;;505.65;403.92;;;;;;;;;;4927084;29;20016;-74
2021/07/16 01:23:59;;;;;;;507.83;401.90;;;;;;;;;;4946580;29;20554;-75
2021/07/16 01:26:25;;;;;;;505.15;400.75;;;;;;;;;;4945275;29;20427;-74
2021/07/16 01:28:51;;;;;;;507.88;407.98;;;;;;;;;;4927302;29;20042;-75
2021/07/16 01:31:19;;;;;;;505.60;399.05;;;;;;;;;;4944127;28;20032;-74
2021/07/16 01:33:45;;;;;;;505.73;401.15;;;;;;;;;;4941282;29;20563;-74
2021/07/16 01:36:11;;;;;;;505.45;401.60;;;;;;;;;;4926050;29;20033;-75
2021/07/16 01:38:37;;;;;;;503.10;395.33;;;;;;;;;;4906745;28;20031;-74
2021/07/16 01:41:03;;;;;;;507.33;400.60;;;;;;;;;;4921222;29;20063;-74
2021/07/16 01:43:29;;;;;;;506.83;404.33;;;;;;;;;;4934275;28;20042;-75
2021/07/16 01:45:55;;;;;;;506.85;403.92;;;;;;;;;;4940975;28;20609;-75
2021/07/16 01:48:21;;;;;;;506.70;405.50;;;;;;;;;;4926469;29;20407;-74
2021/07/16 01:50:49;;;;;;;509.65;403.52;;;;;;;;;;4928931;29;20123;-74
2021/07/16 01:53:18;;;;;;;510.58;401.95;;;;;;;;;;4928395;29;20059;-75
2021/07/16 01:55:44;;;;;;;505.00;398.38;;;;;;;;;;4930094;28;20475;-74
2021/07/16 01:58:11;;;;;;;723.47;464.58;;;;;;;;;;4942533;29;20031;-74
2021/07/16 02:00:39;;;;;;;503.77;394.15;;;;;;;;;;4925959;29;20062;-74
2021/07/16 02:03:09;;;;;;;508.90;401.02;;;;;;;;;;4929437;29;20395;-75
2021/07/16 02:05:36;;;;;;;513.05;420.55;;;;;;;;;;4926261;29;20114;-74
2021/07/16 02:08:06;;;;;;;585.05;428.73;;;;;;;;;;4916381;29;20373;-75
2021/07/16 02:10:32;;;;;;;577.67;429.63;;;;;;;;;;4919116;28;20035;-75
2021/07/16 02:12:59;;;;;;;555.58;409.67;;;;;;;;;;4943890;28;20019;-75
2021/07/16 02:15:29;;;;;;;741.67;574.17;;;;;;;;;;4941996;29;20407;-74
2021/07/16 02:17:55;;;;;;;;;;;;;;;;;;4927655;29;20584;-75
2021/07/16 02:20:26;;;;;;;499.60;381.38;;;;;;;;;;4941986;29;19910;-74
2021/07/16 02:22:52;;;;;;;501.33;389.20;;;;;;;;;;4925683;29;20089;-74
2021/07/16 02:25:19;;;;;;;501.48;391.15;;;;;;;;;;4944585;28;20042;-74
2021/07/16 02:27:46;;;;;;;501.67;392.55;;;;;;;;;;4924985;29;20157;-75
2021/07/16 02:30:13;;;;;;;523.10;395.42;;;;;;;;;;4938900;29;20052;-75
2021/07/16 02:32:39;;;;;;;508.77;402.88;;;;;;;;;;4937445;28;20090;-74
2021/07/16 02:35:06;;;;;;;504.55;393.38;;;;;;;;;;4939895;29;20035;-74
2021/07/16 02:37:32;;;;;;;504.67;397.02;;;;;;;;;;4925141;29;20496;-74
2021/07/16 02:39:58;;;;;;;505.67;400.15;;;;;;;;;;4942229;28;20011;-75
2021/07/16 02:42:24;;;;;;;505.35;401.67;;;;;;;;;;4944294;28;20125;-74
2021/07/16 02:44:50;;;;;;;508.63;402.98;;;;;;;;;;4942157;28;20475;-75
2021/07/16 02:47:16;;;;;;;507.20;399.83;;;;;;;;;;4938155;28;20079;-74
2021/07/16 02:49:42;;;;;;;504.58;399.10;;;;;;;;;;4924425;29;20035;-74
2021/07/16 02:52:08;;;;;;;503.50;394.60;;;;;;;;;;4926759;29;20126;-74
2021/07/16 02:54:34;;;;;;;509.40;406.08;;;;;;;;;;4927962;29;20039;-74
2021/07/16 02:57:00;;;;;;;502.90;390.02;;;;;;;;;;4944792;29;20049;-74
2021/07/16 02:59:26;;;;;;;505.27;401.23;;;;;;;;;;4922542;29;20368;-74
2021/07/16 03:01:53;;;;;;;506.95;401.42;;;;;;;;;;4922581;29;20075;-74
2021/07/16 03:04:19;;;;;;;506.15;403.48;;;;;;;;;;4939536;28;20127;-74
2021/07/16 03:06:45;;;;;;;507.38;403.42;;;;;;;;;;4923823;29;20110;-75
2021/07/16 03:09:11;;;;;;;502.55;390.90;;;;;;;;;;4942806;29;20114;-74
2021/07/16 03:11:37;;;;;;;506.00;402.70;;;;;;;;;;4941715;28;20501;-75
2021/07/16 03:14:04;;;;;;;507.83;401.58;;;;;;;;;;4925917;29;20118;-74
2021/07/16 03:16:30;;;;;;;504.92;397.75;;;;;;;;;;4914938;28;20419;-75
2021/07/16 03:18:58;;;;;;;507.58;403.58;;;;;;;;;;4941810;28;20335;-74
2021/07/16 03:21:24;;;;;;;505.50;399.13;;;;;;;;;;4940358;29;20051;-74
2021/07/16 03:23:50;;;;;;;509.00;407.23;;;;;;;;;;4944820;28;20440;-74
2021/07/16 03:26:16;;;;;;;508.10;402.65;;;;;;;;;;4924653;28;20063;-75
2021/07/16 03:28:42;;;;;;;508.35;408.38;;;;;;;;;;4943523;28;20117;-74
2021/07/16 03:31:08;;;;;;;509.63;399.30;;;;;;;;;;4934008;29;20058;-75
2021/07/16 03:33:35;;;;;;;504.17;396.88;;;;;;;;;;4934913;28;20098;-73
2021/07/16 03:36:00;;;;;;;506.15;401.63;;;;;;;;;;4943983;28;20165;-74
2021/07/16 03:38:27;;;;;;;505.35;400.58;;;;;;;;;;4926693;29;20032;-74
2021/07/16 03:40:55;;;;;;;506.60;403.33;;;;;;;;;;4924250;29;20032;-74
2021/07/16 03:43:21;;;;;;;507.23;403.88;;;;;;;;;;4942167;29;20086;-74
2021/07/16 03:45:47;;;;;;;507.50;404.55;;;;;;;;;;4923088;29;20019;-74
2021/07/16 03:48:13;;;;;;;508.42;402.48;;;;;;;;;;4925376;29;20071;-74
2021/07/16 03:50:39;;;;;;;504.23;398.20;;;;;;;;;;4936460;29;20459;-74
2021/07/16 03:53:06;;;;;;;506.67;399.13;;;;;;;;;;4927284;28;20027;-74
2021/07/16 03:55:32;;;;;;;504.67;398.77;;;;;;;;;;4926898;29;20043;-74
2021/07/16 03:57:58;;;;;;;506.00;398.77;;;;;;;;;;4940031;29;20465;-75
2021/07/16 04:00:28;;;;;;;510.13;397.13;;;;;;;;;;4924031;29;20031;-74
2021/07/16 04:02:55;;;;;;;505.17;395.63;;;;;;;;;;4927382;29;20075;-74
2021/07/16 04:05:20;;;;;;;506.60;396.58;;;;;;;;;;4936628;29;20032;-74
2021/07/16 04:07:47;;;;;;;506.85;398.20;;;;;;;;;;4924418;29;20551;-73
2021/07/16 04:10:18;;;;;;;502.73;390.48;;;;;;;;;;4919843;29;20024;-74
2021/07/16 04:12:50;;;;;;;507.65;399.15;;;;;;;;;;4943042;29;20411;-74
2021/07/16 04:15:16;;;;;;;506.80;400.65;;;;;;;;;;4942198;29;20447;-74
2021/07/16 04:17:42;;;;;;;509.38;407.40;;;;;;;;;;4940579;29;20028;-75
2021/07/16 04:20:09;;;;;;;505.35;401.90;;;;;;;;;;4943091;28;20023;-75
2021/07/16 04:22:35;;;;;;;511.70;405.00;;;;;;;;;;4925894;29;20027;-74
2021/07/16 04:25:01;;;;;;;504.92;399.02;;;;;;;;;;4940968;29;20035;-74
2021/07/16 04:27:27;;;;;;;507.40;402.23;;;;;;;;;;4942836;28;20062;-74
2021/07/16 04:29:53;;;;;;;506.17;400.65;;;;;;;;;;4923899;29;20032;-76
2021/07/16 04:32:19;;;;;;;508.58;406.90;;;;;;;;;;4922185;29;20098;-74
2021/07/16 04:34:45;;;;;;;505.67;399.88;;;;;;;;;;4941070;28;20371;-74
2021/07/16 04:37:11;;;;;;;505.58;400.58;;;;;;;;;;4937497;28;20019;-74
2021/07/16 04:39:38;;;;;;;505.20;399.33;;;;;;;;;;4931528;29;20443;-74
2021/07/16 04:42:04;;;;;;;508.70;406.20;;;;;;;;;;4939186;28;20486;-74
2021/07/16 04:44:33;;;;;;;510.42;409.10;;;;;;;;;;4925354;29;20415;-74
2021/07/16 04:46:59;;;;;;;507.98;403.92;;;;;;;;;;4939119;28;20033;-75
2021/07/16 04:49:25;;;;;;;507.80;402.73;;;;;;;;;;4946387;28;20038;-75
2021/07/16 04:51:51;;;;;;;501.42;394.65;;;;;;;;;;4930376;29;20435;-75
2021/07/16 04:54:17;;;;;;;500.70;392.08;;;;;;;;;;4947047;28;20020;-74
2021/07/16 04:56:44;;;;;;;502.40;397.85;;;;;;;;;;4947337;28;20138;-74
2021/07/16 04:59:11;;;;;;;503.83;402.38;;;;;;;;;;4947317;28;20023;-74
2021/07/16 05:01:37;;;;;;;505.30;403.23;;;;;;;;;;4944417;28;20036;-74
2021/07/16 05:04:03;;;;;;;503.75;400.05;;;;;;;;;;4938769;28;20550;-74
2021/07/16 05:06:29;;;;;;;507.73;404.75;;;;;;;;;;4918991;29;20031;-75
2021/07/16 05:08:55;;;;;;;504.70;402.02;;;;;;;;;;4931937;28;20039;-74
2021/07/16 05:11:21;;;;;;;515.00;403.23;;;;;;;;;;4929763;29;20035;-74
2021/07/16 05:13:48;;;;;;;508.83;406.63;;;;;;;;;;4929198;28;20427;-75
2021/07/16 05:16:15;;;;;;;507.83;402.45;;;;;;;;;;4922300;28;20035;-74
2021/07/16 05:18:41;;;;;;;506.50;402.45;;;;;;;;;;4946746;28;20139;-75
2021/07/16 05:21:08;;;;;;;510.30;407.08;;;;;;;;;;4928680;29;20110;-74
2021/07/16 05:23:34;;;;;;;502.13;392.15;;;;;;;;;;4928530;28;20157;-74
2021/07/16 05:26:00;;;;;;;504.55;399.30;;;;;;;;;;4941298;28;20035;-74
2021/07/16 05:28:27;;;;;;;506.42;405.83;;;;;;;;;;4932862;29;20050;-75
2021/07/16 05:30:52;;;;;;;505.13;398.00;;;;;;;;;;4948333;29;20118;-74
2021/07/16 05:33:19;;;;;;;506.85;403.23;;;;;;;;;;4934154;29;20187;-74
2021/07/16 05:35:45;;;;;;;507.30;400.05;;;;;;;;;;4945110;28;20031;-74
2021/07/16 05:38:11;;;;;;;505.13;403.48;;;;;;;;;;4930655;29;20073;-74
2021/07/16 05:40:37;;;;;;;506.80;407.65;;;;;;;;;;4947185;29;20033;-74
2021/07/16 05:43:10;;;;;;;503.23;404.50;;;;;;;;;;4936047;29;20026;-75
2021/07/16 05:45:37;;;;;;;504.25;408.13;;;;;;;;;;4948040;28;20480;-74
2021/07/16 05:48:04;;;;;;;503.00;397.27;;;;;;;;;;4931736;29;20069;-74
2021/07/16 05:50:31;;;;;;;501.63;405.00;;;;;;;;;;4942736;29;20038;-74
2021/07/16 05:52:57;;;;;;;499.10;396.05;;;;;;;;;;4944969;29;20031;-74
2021/07/16 05:55:23;;;;;;;501.27;403.15;;;;;;;;;;4948686;28;20046;-74
2021/07/16 05:57:49;;;;;;;494.20;385.35;;;;;;;;;;4950219;29;20055;-73
2021/07/16 06:00:16;;;;;;;500.65;398.10;;;;;;;;;;4935556;29;20074;-74
2021/07/16 06:02:41;;;;;;;510.45;393.65;;;;;;;;;;4935046;29;20036;-73
2021/07/16 06:05:08;;;;;;;505.23;401.33;;;;;;;;;;4931586;29;20090;-74
2021/07/16 06:07:34;;;;;;;505.00;406.60;;;;;;;;;;4945187;29;20522;-74
2021/07/16 06:10:00;;;;;;;688.60;442.48;;;;;;;;;;4935838;29;20029;-74
2021/07/16 06:12:45;;;;;;;506.75;408.73;;;;;;;;;;4933054;29;20030;-74
2021/07/16 06:15:11;;;;;;;505.40;405.25;;;;;;;;;;4941330;29;20047;-74
2021/07/16 06:17:37;;;;;;;505.00;405.02;;;;;;;;;;4931854;29;20027;-74
2021/07/16 06:20:05;;;;;;;1914.57;589.13;;;;;;;;;;4933480;28;20028;-74
2021/07/16 06:22:31;;;;;;;1999.90;898.20;;;;;;;;;;4926327;29;20035;-75
2021/07/16 06:24:57;;;;;;;577.58;453.58;;;;;;;;;;4945494;29;20392;-74
2021/07/16 06:27:23;;;;;;;518.10;425.30;;;;;;;;;;4927558;29;20035;-73
2021/07/16 06:29:49;;;;;;;1886.63;678.05;;;;;;;;;;4935342;28;20371;-74
2021/07/16 06:32:15;;;;;;;1999.90;999.90;;;;;;;;;;4939854;29;20031;-73
2021/07/16 06:34:41;;;;;;;1999.90;999.90;;;;;;;;;;4923383;29;20039;-74
2021/07/16 06:37:07;;;;;;;1999.90;999.90;;;;;;;;;;4946982;29;20373;-73
2021/07/16 06:39:34;;;;;;;1999.90;999.90;;;;;;;;;;4929556;29;20543;-74
2021/07/16 06:42:01;;;;;;;1999.90;999.90;;;;;;;;;;4945184;28;20027;-74
2021/07/16 06:44:27;;;;;;;1999.90;999.90;;;;;;;;;;4933080;29;20145;-74
2021/07/16 06:46:53;;;;;;;1999.90;999.90;;;;;;;;;;4948010;29;20036;-74
2021/07/16 06:49:26;;;;;;;1999.90;999.90;;;;;;;;;;4934515;28;20034;-74
2021/07/16 06:51:52;;;;;;;1999.90;999.90;;;;;;;;;;4935054;29;20032;-74
2021/07/16 06:54:24;;;;;;;1999.90;999.90;;;;;;;;;;4953994;29;20038;-73
2021/07/16 06:56:50;;;;;;;1999.90;999.90;;;;;;;;;;4949169;29;20065;-74
2021/07/16 06:59:16;;;;;;;1999.90;999.90;;;;;;;;;;4931092;29;20024;-74
2021/07/16 07:01:42;;;;;;;1999.90;999.90;;;;;;;;;;4946625;29;20032;-73
2021/07/16 07:04:08;;;;;;;1999.90;999.90;;;;;;;;;;4952686;29;20058;-74
2021/07/16 07:06:35;;;;;;;1999.90;999.90;;;;;;;;;;4932321;29;20058;-73
2021/07/16 07:09:01;;;;;;;1999.90;999.90;;;;;;;;;;4948941;28;20038;-74
2021/07/16 07:11:27;;;;;;;1999.90;999.90;;;;;;;;;;4949774;28;20031;-74
2021/07/16 07:13:53;;;;;;;1999.90;999.90;;;;;;;;;;4934534;29;20035;-74
2021/07/16 07:16:19;;;;;;;1999.90;999.90;;;;;;;;;;4946492;28;20408;-74
2021/07/16 07:18:45;;;;;;;1999.90;999.90;;;;;;;;;;4939037;29;20101;-73
2021/07/16 07:21:13;;;;;;;1999.90;999.90;;;;;;;;;;4933830;29;20501;-74
2021/07/16 07:23:40;;;;;;;1379.25;690.40;;;;;;;;;;4951290;28;20086;-74
2021/07/16 07:26:06;;;;;;;506.42;411.85;;;;;;;;;;4939316;29;20032;-74
2021/07/16 07:28:33;;;;;;;505.52;411.88;;;;;;;;;;4933334;29;20027;-73
2021/07/16 07:30:59;;;;;;;511.75;412.25;;;;;;;;;;4944766;28;20047;-74
2021/07/16 07:33:25;;;;;;;505.10;407.95;;;;;;;;;;4947719;28;20042;-74
2021/07/16 07:35:51;;;;;;;506.17;412.10;;;;;;;;;;4934453;29;20692;-74
2021/07/16 07:38:17;;;;;;;506.02;413.90;;;;;;;;;;4939927;29;20121;-75
2021/07/16 07:40:49;;;;;;;506.48;409.55;;;;;;;;;;4948287;29;20187;-76
2021/07/16 07:43:15;;;;;;;505.38;412.02;;;;;;;;;;4942162;28;20052;-75
2021/07/16 07:45:41;;;;;;;511.98;416.85;;;;;;;;;;4920368;29;20058;-75
2021/07/16 07:48:07;;;;;;;510.52;420.75;;;;;;;;;;4949655;29;20175;-76
2021/07/16 07:50:34;;;;;;;508.20;420.63;;;;;;;;;;4933522;29;20028;-75
2021/07/16 07:53:19;;;;;;;507.60;412.55;;;;;;;;;;4927033;29;20030;-75
2021/07/16 07:55:45;;;;;;;507.45;417.48;;;;;;;;;;4941981;29;20032;-80
2021/07/16 07:58:11;;;;;;;503.60;405.98;;;;;;;;;;4934066;29;20019;-74
2021/07/16 08:00:37;;;;;;;509.30;422.58;;;;;;;;;;4930182;29;20023;-74
2021/07/16 08:03:03;;;;;;;507.02;421.45;;;;;;;;;;4943260;29;20034;-75
2021/07/16 08:05:36;;;;;;;505.63;411.90;;;;;;;;;;4941458;29;20078;-75
2021/07/16 08:08:02;;;;;;;505.60;415.40;;;;;;;;;;4927886;28;20089;-75
2021/07/16 08:10:28;;;;;;;509.83;422.27;;;;;;;;;;4936964;29;20054;-74
2021/07/16 08:15:38;;;;;;;520.88;433.23;;;;;;;;;;4894506;29;20363;-82
2021/07/16 08:18:04;;;;;;;556.75;437.52;;;;;;;;;;4901816;29;20084;-80
2021/07/16 08:20:33;;;;;;;516.58;432.15;;;;;;;;;;4889117;29;21801;-81
2021/07/16 08:23:01;;;;;;;509.42;418.60;;;;;;;;;;4915528;29;20060;-81
2021/07/16 08:25:30;;;;;;;538.80;422.10;;;;;;;;;;4920638;29;20039;-86
2021/07/16 08:27:58;;;;;;;517.90;426.60;;;;;;;;;;4912335;29;20032;-83
2021/07/16 08:30:24;;;;;;;520.50;441.00;;;;;;;;;;4918865;29;20048;-79
2021/07/16 08:32:50;;;;;;;519.15;438.67;;;;;;;;;;4908452;29;20033;-82
2021/07/16 08:35:16;;;;;;;515.58;429.95;;;;;;;;;;4925340;29;20142;-83
2021/07/16 08:37:42;;;;;;;512.63;424.75;;;;;;;;;;4897980;29;20028;-81
2021/07/16 08:40:09;;;;;;;512.22;419.25;;;;;;;;;;4895497;29;20024;-80
2021/07/16 08:42:35;;;;;;;514.67;427.92;;;;;;;;;;4920246;29;20025;-81
2021/07/16 08:45:03;;;;;;;514.47;429.10;;;;;;;;;;4895579;29;20027;-82
2021/07/16 08:47:29;;;;;;;513.92;427.17;;;;;;;;;;4903753;29;20031;-81
2021/07/16 08:49:56;;;;;;;516.28;426.17;;;;;;;;;;4909522;29;20029;-80
2021/07/16 08:52:22;;;;;;;533.65;421.10;;;;;;;;;;4900780;29;20032;-81
2021/07/16 08:54:50;;;;;;;515.42;433.63;;;;;;;;;;4910733;29;20039;-82
2021/07/16 08:57:17;;;;;;;511.48;426.27;;;;;;;;;;4897050;29;20125;-82
2021/07/16 08:59:43;;;;;;;525.13;435.55;;;;;;;;;;4897127;29;20067;-82
2021/07/16 09:02:10;;;;;;;514.92;432.83;;;;;;;;;;4911468;29;20030;-81
2021/07/16 09:04:38;;;;;;;1911.35;738.67;;;;;;;;;;4891769;29;20379;-81
2021/07/16 09:07:04;;;;;;;1972.20;694.22;;;;;;;;;;4901600;29;20025;-82
2021/07/16 09:09:38;;;;;;;518.05;437.67;;;;;;;;;;4888496;29;20029;-80
2021/07/16 09:12:11;;;;;;;521.70;440.77;;;;;;;;;;4894468;29;20029;-81
2021/07/16 09:15:09;;;;;;;519.13;439.48;;;;;;;;;;4898173;29;20150;-85
2021/07/16 09:17:36;;;;;;;521.28;439.63;;;;;;;;;;4898227;29;20494;-78
2021/07/16 09:20:02;;;;;;;516.22;434.00;;;;;;;;;;4896212;29;20484;-79
2021/07/16 09:22:34;;;;;;;521.05;443.73;;;;;;;;;;4898234;29;20046;-81
2021/07/16 09:25:02;;;;;;;517.03;439.08;;;;;;;;;;4914589;29;20032;-79
2021/07/16 09:27:41;;;;;;;514.05;433.65;;;;;;;;;;4908832;29;20440;-81
2021/07/16 09:30:10;;;;;;;516.88;444.27;;;;;;;;;;4908626;29;20091;-79
2021/07/16 09:32:44;;;;;;;515.35;435.45;;;;;;;;;;4906680;29;20471;-80
2021/07/16 09:35:10;;;;;;;521.35;442.98;;;;;;;;;;4911358;29;20051;-79
2021/07/16 09:37:50;;;;;;;514.53;434.70;;;;;;;;;;4899023;29;20037;-80
2021/07/16 09:40:23;;;;;;;519.40;440.75;;;;;;;;;;4905995;29;20040;-80
2021/07/16 09:43:10;;;;;;;520.10;455.20;;;;;;;;;;4903013;29;20046;-79
2021/07/16 09:45:38;;;;;;;520.63;449.02;;;;;;;;;;4903571;29;20562;-80
2021/07/16 09:48:19;;;;;;;518.92;447.40;;;;;;;;;;4896239;29;20029;-80
2021/07/16 09:50:45;;;;;;;1999.90;993.03;;;;;;;;;;4896994;29;20483;-80
2021/07/16 09:53:26;;;;;;;1999.90;999.90;;;;;;;;;;4896532;29;20396;-79
2021/07/16 09:56:08;;;;;;;1075.22;601.15;;;;;;;;;;4896367;29;20072;-80
2021/07/16 09:58:34;;;;;;;513.33;430.83;;;;;;;;;;4900131;29;20479;-79
2021/07/16 10:01:00;;;;;;;516.90;439.35;;;;;;;;;;4904444;29;20021;-80
2021/07/16 10:03:28;;;;;;;519.42;448.00;;;;;;;;;;4906772;29;20521;-80
2021/07/16 10:05:54;;;;;;;520.45;448.40;;;;;;;;;;4889635;29;20119;-79
2021/07/16 10:08:20;;;;;;;518.33;448.38;;;;;;;;;;4896469;29;20064;-80
2021/07/16 10:10:48;;;;;;;514.00;432.15;;;;;;;;;;4887168;29;20056;-79
2021/07/16 10:13:14;;;;;;;518.97;444.52;;;;;;;;;;4909695;29;20028;-79
2021/07/16 10:15:42;;;;;;;524.13;460.75;;;;;;;;;;4902420;29;20078;-78
2021/07/16 10:18:09;;;;;;;522.90;457.92;;;;;;;;;;4909497;29;20024;-79
2021/07/16 10:20:36;;;;;;;525.63;467.23;;;;;;;;;;4902807;29;20079;-79
2021/07/16 10:23:03;;;;;;;515.65;452.13;;;;;;;;;;4899631;29;20046;-79
2021/07/16 10:25:29;;;;;;;521.88;463.23;;;;;;;;;;4910173;29;20051;-78
2021/07/16 10:27:55;;;;;;;779.10;537.05;;;;;;;;;;4899838;29;20033;-79
2021/07/16 10:30:25;;;;;;;523.53;460.10;;;;;;;;;;4895516;29;20035;-80
2021/07/16 10:32:52;;;;;;;522.72;464.27;;;;;;;;;;4898878;29;20024;-79
2021/07/16 10:35:18;;;;;;;526.22;465.83;;;;;;;;;;4904489;29;20032;-79
2021/07/16 10:37:45;;;;;;;530.80;472.58;;;;;;;;;;4889947;29;20024;-78
2021/07/16 10:40:30;;;;;;;512.85;439.90;;;;;;;;;;4907059;29;20036;-79
2021/07/16 10:42:57;;;;;;;519.78;460.00;;;;;;;;;;4898058;29;20053;-78
2021/07/16 10:45:39;;;;;;;517.58;454.02;;;;;;;;;;4894848;29;20104;-80
2021/07/16 10:48:10;;;;;;;525.63;467.20;;;;;;;;;;4891151;29;20029;-82
2021/07/16 10:50:37;;;;;;;525.65;459.65;;;;;;;;;;4887592;29;20034;-79
2021/07/16 10:53:06;;;;;;;527.35;469.73;;;;;;;;;;4902911;29;20108;-80
2021/07/16 10:55:38;;;;;;;536.47;478.52;;;;;;;;;;4894454;29;20036;-80
2021/07/16 10:58:38;;;;;;;535.67;477.77;;;;;;;;;;4898573;29;20024;-80
2021/07/16 11:01:05;;;;;;;547.35;483.17;;;;;;;;;;4894393;29;20213;-78
2021/07/16 11:03:39;;;;;;;553.60;495.05;;;;;;;;;;4896897;29;20091;-77
2021/07/16 11:06:05;;;;;;;541.95;484.38;;;;;;;;;;4902233;29;20043;-77
2021/07/16 11:08:32;;;;;;;548.95;490.77;;;;;;;;;;4887337;29;20087;-77
2021/07/16 11:11:02;;;;;;;548.95;490.80;;;;;;;;;;4905091;29;20075;-77
2021/07/16 11:13:28;;;;;;;;;;;;;;;;;;4906529;29;20107;-79
2021/07/16 11:15:54;;;;;;;537.25;479.15;;;;;;;;;;4891893;29;19977;-78
2021/07/16 11:18:27;;;;;;;538.85;480.80;;;;;;;;;;4899433;29;20033;-78
2021/07/16 11:20:56;;;;;;;538.22;480.17;;;;;;;;;;4919722;29;20569;-82
2021/07/16 11:23:42;;;;;;;538.15;479.92;;;;;;;;;;4908477;29;20131;-78
2021/07/16 11:26:18;;;;;;;537.67;479.52;;;;;;;;;;4912008;29;20526;-77
2021/07/16 11:28:44;;;;;;;533.40;475.50;;;;;;;;;;4886940;29;20056;-78
2021/07/16 11:31:11;;;;;;;545.53;486.23;;;;;;;;;;4892883;29;20048;-78
2021/07/16 11:33:37;;;;;;;526.53;468.73;;;;;;;;;;4892954;29;20096;-78
2021/07/16 11:36:03;;;;;;;524.95;467.23;;;;;;;;;;4907038;29;20023;-78
2021/07/16 11:38:29;;;;;;;531.92;471.42;;;;;;;;;;4901127;29;20032;-79
2021/07/16 11:40:55;;;;;;;526.17;468.33;;;;;;;;;;4899299;29;20083;-80
2021/07/16 11:43:21;;;;;;;527.90;470.02;;;;;;;;;;4897508;29;20032;-78
2021/07/16 11:45:53;;;;;;;520.53;463.17;;;;;;;;;;4893207;29;20040;-81
2021/07/16 11:48:21;;;;;;;530.88;472.42;;;;;;;;;;4902889;29;20429;-77
2021/07/16 11:50:48;;;;;;;524.72;466.92;;;;;;;;;;4902857;29;20111;-77
2021/07/16 11:53:17;;;;;;;530.28;472.33;;;;;;;;;;4906366;29;20024;-77
2021/07/16 11:55:45;;;;;;;525.58;467.40;;;;;;;;;;4894363;29;20295;-77
2021/07/16 11:58:12;;;;;;;537.22;478.60;;;;;;;;;;4910419;29;20298;-76
2021/07/16 12:01:09;;;;;;;523.38;465.77;;;;;;;;;;4899551;29;20036;-86
2021/07/16 12:03:35;;;;;;;521.55;463.88;;;;;;;;;;4908822;29;20116;-77
2021/07/16 12:06:04;;;;;;;524.95;462.67;;;;;;;;;;4899363;29;20021;-78
2021/07/16 12:08:47;;;;;;;523.33;465.95;;;;;;;;;;4900421;29;20035;-87
2021/07/16 12:11:19;;;;;;;527.17;469.48;;;;;;;;;;4908610;29;20091;-78
2021/07/16 12:13:58;;;;;;;530.78;472.45;;;;;;;;;;4895698;29;20036;-78
2021/07/16 12:16:24;;;;;;;515.80;458.67;;;;;;;;;;4900707;29;20047;-79
2021/07/16 12:18:50;;;;;;;530.67;469.77;;;;;;;;;;4907215;29;20020;-77
2021/07/16 12:21:20;;;;;;;537.40;479.48;;;;;;;;;;4902277;29;20704;-77
2021/07/16 12:23:50;;;;;;;537.17;479.38;;;;;;;;;;4906269;29;20021;-77
2021/07/16 12:26:20;;;;;;;538.78;480.75;;;;;;;;;;4896639;29;20749;-77
2021/07/16 12:28:50;;;;;;;541.17;482.55;;;;;;;;;;4902706;29;20119;-79
2021/07/16 12:31:20;;;;;;;539.28;481.65;;;;;;;;;;4896387;29;20029;-77
2021/07/16 12:33:46;;;;;;;;;;;;;;;;;;4897420;29;20044;-77
2021/07/16 12:36:22;;;;;;;527.83;470.40;;;;;;;;;;4896647;29;19958;-77
2021/07/16 12:38:48;;;;;;;533.28;475.55;;;;;;;;;;4897539;29;20027;-78
2021/07/16 12:41:14;;;;;;;539.88;482.30;;;;;;;;;;4899047;29;20100;-76
2021/07/16 12:43:42;;;;;;;536.88;479.40;;;;;;;;;;4905386;29;20029;-77
2021/07/16 12:46:09;;;;;;;537.97;480.50;;;;;;;;;;4905253;29;20052;-77
2021/07/16 12:48:36;;;;;;;530.38;473.05;;;;;;;;;;4898975;29;20037;-76
2021/07/16 12:51:05;;;;;;;548.58;490.60;;;;;;;;;;4899089;29;20227;-77
2021/07/16 12:53:39;;;;;;;545.28;485.67;;;;;;;;;;4914728;29;20036;-77
2021/07/16 12:56:18;;;;;;;546.70;488.75;;;;;;;;;;4904770;29;20115;-77
2021/07/16 12:58:44;;;;;;;544.72;486.50;;;;;;;;;;4907064;29;20108;-77
2021/07/16 13:01:11;;;;;;;540.03;482.42;;;;;;;;;;4900810;29;20585;-77
2021/07/16 13:03:38;;;;;;;549.10;491.33;;;;;;;;;;4894127;29;20036;-76
2021/07/16 13:06:24;;;;;;;549.72;491.83;;;;;;;;;;4910888;29;20038;-77
2021/07/16 13:09:28;;;;;;;543.67;485.70;;;;;;;;;;4897274;29;20111;-78
2021/07/16 13:12:00;;;;;;;539.53;481.55;;;;;;;;;;4879312;29;20432;-77
2021/07/16 13:17:36;;;;;;;541.95;484.13;;;;;;;;;;4902550;29;20051;-79
2021/07/16 13:20:06;;;;;;;551.60;492.60;;;;;;;;;;4902128;29;20103;-79
2021/07/16 13:22:33;;;;;;;535.42;477.83;;;;;;;;;;4918168;29;20038;-78
2021/07/16 13:24:59;;;;;;;539.67;482.02;;;;;;;;;;4916360;29;20041;-78
2021/07/16 13:27:26;;;;;;;559.83;501.52;;;;;;;;;;4920039;29;20115;-78
2021/07/16 13:33:39;;;;;;;555.75;496.83;;;;;;;;;;4898104;29;20032;-86
2021/07/16 13:36:05;;;;;;;;;;;;;;;;;;4893595;29;20507;-79
2021/07/16 13:38:32;;;;;;;541.25;483.42;;;;;;;;;;4893160;29;19918;-77
2021/07/16 13:40:59;;;;;;;542.75;484.95;;;;;;;;;;4897612;29;20040;-78
2021/07/16 13:43:25;;;;;;;542.53;484.75;;;;;;;;;;4894773;29;20029;-79
2021/07/16 13:45:51;;;;;;;549.85;491.85;;;;;;;;;;4888041;29;20055;-78
2021/07/16 13:48:17;;;;;;;551.28;492.20;;;;;;;;;;4902135;29;20024;-79
2021/07/16 13:50:43;;;;;;;550.78;492.50;;;;;;;;;;4891762;29;20024;-78
2021/07/16 13:53:09;;;;;;;554.10;495.73;;;;;;;;;;4898429;29;20036;-78
2021/07/16 13:55:35;;;;;;;560.83;502.13;;;;;;;;;;4892497;29;20124;-78
2021/07/16 13:58:01;;;;;;;544.65;486.13;;;;;;;;;;4895966;29;20035;-79
2021/07/16 14:00:27;;;;;;;549.03;490.27;;;;;;;;;;4899789;29;20020;-78
2021/07/16 14:02:53;;;;;;;549.55;490.83;;;;;;;;;;4902932;29;20028;-79
2021/07/16 14:05:23;;;;;;;540.78;482.50;;;;;;;;;;4894924;29;20474;-81
2021/07/16 14:07:49;;;;;;;536.95;479.13;;;;;;;;;;4900527;29;20021;-78